sensor_id;sensor_type;location;lat;lon;timestamp;P1;durP1;ratioP1;P2;durP2;ratioP2
26540;SDS011;14206;50.202;10.948;2023-01-29T00:02:12;2.25;;;2.03;;
26540;SDS011;14206;50.202;10.948;2023-01-29T00:04:39;2.40;;;2.20;;
26540;SDS011;14206;50.202;10.948;2023-01-29T00:10:00;2.00;;;1.80;;
26540;SDS011;14206;50.202;10.948;2023-01-29T00:12:27;2.30;;;2.10;;
26540;SDS011;14206;50.202;10.948;2023-01-29T00:14:54;3.25;;;2.95;;
26540;SDS011;14206;50.202;10.948;2023-01-29T00:17:21;2.63;;;2.30;;
26540;SDS011;14206;50.202;10.948;2023-01-29T00:19:48;2.58;;;2.35;;
26540;SDS011;14206;50.202;10.948;2023-01-29T00:22:15;1.92;;;1.83;;
26540;SDS011;14206;50.202;10.948;2023-01-29T00:24:42;1.80;;;1.70;;
26540;SDS011;14206;50.202;10.948;2023-01-29T00:27:09;2.50;;;2.30;;
26540;SDS011;14206;50.202;10.948;2023-01-29T00:29:36;2.30;;;2.03;;
26540;SDS011;14206;50.202;10.948;2023-01-29T00:32:03;2.90;;;2.13;;
26540;SDS011;14206;50.202;10.948;2023-01-29T00:34:30;3.65;;;2.40;;
26540;SDS011;14206;50.202;10.948;2023-01-29T00:36:57;2.78;;;2.10;;
26540;SDS011;14206;50.202;10.948;2023-01-29T00:39:34;3.15;;;2.47;;
26540;SDS011;14206;50.202;10.948;2023-01-29T00:42:13;2.50;;;2.13;;
26540;SDS011;14206;50.202;10.948;2023-01-29T00:44:58;2.30;;;2.10;;
26540;SDS011;14206;50.202;10.948;2023-01-29T00:47:25;2.13;;;1.92;;
26540;SDS011;14206;50.202;10.948;2023-01-29T00:50:02;2.03;;;1.83;;
26540;SDS011;14206;50.202;10.948;2023-01-29T00:52:31;3.47;;;2.50;;
26540;SDS011;14206;50.202;10.948;2023-01-29T00:54:59;3.10;;;2.70;;
26540;SDS011;14206;50.202;10.948;2023-01-29T00:57:26;3.00;;;2.70;;
26540;SDS011;14206;50.202;10.948;2023-01-29T00:59:55;2.80;;;2.35;;
26540;SDS011;14206;50.202;10.948;2023-01-29T01:02:22;2.28;;;2.08;;
26540;SDS011;14206;50.202;10.948;2023-01-29T01:05:08;2.42;;;2.13;;
26540;SDS011;14206;50.202;10.948;2023-01-29T01:07:50;2.90;;;2.40;;
26540;SDS011;14206;50.202;10.948;2023-01-29T01:10:20;4.45;;;2.38;;
26540;SDS011;14206;50.202;10.948;2023-01-29T01:15:21;2.22;;;2.00;;
26540;SDS011;14206;50.202;10.948;2023-01-29T01:17:53;2.10;;;1.90;;
26540;SDS011;14206;50.202;10.948;2023-01-29T01:20:21;3.28;;;2.90;;
26540;SDS011;14206;50.202;10.948;2023-01-29T01:22:49;3.90;;;3.20;;
26540;SDS011;14206;50.202;10.948;2023-01-29T01:25:18;3.95;;;3.10;;
26540;SDS011;14206;50.202;10.948;2023-01-29T01:27:46;3.95;;;2.90;;
26540;SDS011;14206;50.202;10.948;2023-01-29T01:30:14;2.80;;;2.33;;
26540;SDS011;14206;50.202;10.948;2023-01-29T01:32:42;3.25;;;2.95;;
26540;SDS011;14206;50.202;10.948;2023-01-29T01:35:09;3.60;;;3.25;;
26540;SDS011;14206;50.202;10.948;2023-01-29T01:37:36;2.97;;;2.60;;
26540;SDS011;14206;50.202;10.948;2023-01-29T01:40:04;3.33;;;2.70;;
26540;SDS011;14206;50.202;10.948;2023-01-29T01:42:38;3.53;;;2.70;;
26540;SDS011;14206;50.202;10.948;2023-01-29T01:45:20;2.70;;;2.20;;
26540;SDS011;14206;50.202;10.948;2023-01-29T01:48:10;3.80;;;2.97;;
26540;SDS011;14206;50.202;10.948;2023-01-29T01:50:46;2.90;;;2.58;;
26540;SDS011;14206;50.202;10.948;2023-01-29T01:53:20;2.72;;;2.00;;
26540;SDS011;14206;50.202;10.948;2023-01-29T01:56:23;2.13;;;1.83;;
26540;SDS011;14206;50.202;10.948;2023-01-29T01:59:07;1.63;;;1.52;;
26540;SDS011;14206;50.202;10.948;2023-01-29T02:01:38;2.03;;;1.80;;
26540;SDS011;14206;50.202;10.948;2023-01-29T02:04:10;2.75;;;2.03;;
26540;SDS011;14206;50.202;10.948;2023-01-29T02:07:02;2.40;;;2.05;;
26540;SDS011;14206;50.202;10.948;2023-01-29T02:09:50;2.20;;;2.00;;
26540;SDS011;14206;50.202;10.948;2023-01-29T02:12:19;2.13;;;1.92;;
26540;SDS011;14206;50.202;10.948;2023-01-29T02:14:48;2.55;;;2.03;;
26540;SDS011;14206;50.202;10.948;2023-01-29T02:17:17;2.30;;;2.05;;
26540;SDS011;14206;50.202;10.948;2023-01-29T02:25:57;2.65;;;1.92;;
26540;SDS011;14206;50.202;10.948;2023-01-29T02:28:22;3.28;;;2.30;;
26540;SDS011;14206;50.202;10.948;2023-01-29T02:37:03;3.60;;;2.97;;
26540;SDS011;14206;50.202;10.948;2023-01-29T02:42:05;4.00;;;3.53;;
26540;SDS011;14206;50.202;10.948;2023-01-29T02:44:43;3.38;;;3.08;;
26540;SDS011;14206;50.202;10.948;2023-01-29T02:47:21;3.88;;;3.10;;
26540;SDS011;14206;50.202;10.948;2023-01-29T02:50:08;4.07;;;3.33;;
26540;SDS011;14206;50.202;10.948;2023-01-29T02:55:48;2.97;;;2.67;;
26540;SDS011;14206;50.202;10.948;2023-01-29T02:58:45;2.55;;;2.22;;
26540;SDS011;14206;50.202;10.948;2023-01-29T03:01:20;2.30;;;2.10;;
26540;SDS011;14206;50.202;10.948;2023-01-29T03:03:57;3.88;;;2.75;;
26540;SDS011;14206;50.202;10.948;2023-01-29T03:06:31;3.33;;;2.60;;
26540;SDS011;14206;50.202;10.948;2023-01-29T03:09:16;2.60;;;2.40;;
26540;SDS011;14206;50.202;10.948;2023-01-29T03:11:51;2.90;;;2.28;;
26540;SDS011;14206;50.202;10.948;2023-01-29T03:14:28;2.60;;;2.40;;
26540;SDS011;14206;50.202;10.948;2023-01-29T03:17:29;3.00;;;2.60;;
26540;SDS011;14206;50.202;10.948;2023-01-29T03:20:03;3.25;;;2.55;;
26540;SDS011;14206;50.202;10.948;2023-01-29T03:22:35;2.28;;;2.08;;
26540;SDS011;14206;50.202;10.948;2023-01-29T03:25:03;2.10;;;1.90;;
26540;SDS011;14206;50.202;10.948;2023-01-29T03:27:57;3.80;;;2.80;;
26540;SDS011;14206;50.202;10.948;2023-01-29T03:30:49;4.15;;;2.83;;
26540;SDS011;14206;50.202;10.948;2023-01-29T03:33:43;2.50;;;2.10;;
26540;SDS011;14206;50.202;10.948;2023-01-29T03:36:20;2.83;;;2.40;;
26540;SDS011;14206;50.202;10.948;2023-01-29T03:39:11;1.98;;;1.73;;
26540;SDS011;14206;50.202;10.948;2023-01-29T03:41:49;2.40;;;2.08;;
26540;SDS011;14206;50.202;10.948;2023-01-29T03:44:41;2.25;;;2.05;;
26540;SDS011;14206;50.202;10.948;2023-01-29T03:47:42;2.28;;;1.92;;
26540;SDS011;14206;50.202;10.948;2023-01-29T03:56:03;2.10;;;1.90;;
26540;SDS011;14206;50.202;10.948;2023-01-29T04:02:18;1.98;;;1.85;;
26540;SDS011;14206;50.202;10.948;2023-01-29T04:05:13;3.03;;;1.85;;
26540;SDS011;14206;50.202;10.948;2023-01-29T04:08:09;1.77;;;1.60;;
26540;SDS011;14206;50.202;10.948;2023-01-29T04:10:45;3.65;;;2.72;;
26540;SDS011;14206;50.202;10.948;2023-01-29T04:13:15;3.70;;;2.63;;
26540;SDS011;14206;50.202;10.948;2023-01-29T04:15:48;2.83;;;2.45;;
26540;SDS011;14206;50.202;10.948;2023-01-29T04:18:32;3.03;;;2.53;;
26540;SDS011;14206;50.202;10.948;2023-01-29T04:21:08;2.55;;;2.35;;
26540;SDS011;14206;50.202;10.948;2023-01-29T04:23:36;3.20;;;2.75;;
26540;SDS011;14206;50.202;10.948;2023-01-29T04:29:20;2.75;;;2.47;;
26540;SDS011;14206;50.202;10.948;2023-01-29T04:32:22;3.42;;;2.83;;
26540;SDS011;14206;50.202;10.948;2023-01-29T04:38:13;3.25;;;2.75;;
26540;SDS011;14206;50.202;10.948;2023-01-29T04:40:54;2.70;;;2.30;;
26540;SDS011;14206;50.202;10.948;2023-01-29T04:46:37;2.58;;;2.15;;
26540;SDS011;14206;50.202;10.948;2023-01-29T04:52:06;2.80;;;2.15;;
26540;SDS011;14206;50.202;10.948;2023-01-29T04:57:34;5.83;;;3.93;;
26540;SDS011;14206;50.202;10.948;2023-01-29T05:02:39;7.10;;;4.95;;
26540;SDS011;14206;50.202;10.948;2023-01-29T05:05:07;6.50;;;4.90;;
26540;SDS011;14206;50.202;10.948;2023-01-29T05:07:36;5.47;;;4.60;;
26540;SDS011;14206;50.202;10.948;2023-01-29T05:10:04;4.75;;;4.07;;
26540;SDS011;14206;50.202;10.948;2023-01-29T05:12:34;4.78;;;3.67;;
26540;SDS011;14206;50.202;10.948;2023-01-29T05:15:04;4.15;;;3.42;;
26540;SDS011;14206;50.202;10.948;2023-01-29T05:17:36;4.50;;;3.42;;
26540;SDS011;14206;50.202;10.948;2023-01-29T05:20:03;4.05;;;3.35;;
26540;SDS011;14206;50.202;10.948;2023-01-29T05:22:31;4.30;;;3.30;;
26540;SDS011;14206;50.202;10.948;2023-01-29T05:25:01;4.30;;;2.72;;
26540;SDS011;14206;50.202;10.948;2023-01-29T05:27:30;3.53;;;2.40;;
26540;SDS011;14206;50.202;10.948;2023-01-29T05:30:18;3.33;;;2.20;;
26540;SDS011;14206;50.202;10.948;2023-01-29T05:32:45;2.22;;;1.90;;
26540;SDS011;14206;50.202;10.948;2023-01-29T05:35:12;2.13;;;1.92;;
26540;SDS011;14206;50.202;10.948;2023-01-29T05:37:39;2.63;;;2.00;;
26540;SDS011;14206;50.202;10.948;2023-01-29T05:40:06;3.25;;;2.35;;
26540;SDS011;14206;50.202;10.948;2023-01-29T05:42:34;2.63;;;2.08;;
26540;SDS011;14206;50.202;10.948;2023-01-29T05:45:02;2.60;;;2.30;;
26540;SDS011;14206;50.202;10.948;2023-01-29T05:47:29;2.30;;;1.95;;
26540;SDS011;14206;50.202;10.948;2023-01-29T05:49:56;2.67;;;2.20;;
26540;SDS011;14206;50.202;10.948;2023-01-29T05:52:25;4.25;;;2.85;;
26540;SDS011;14206;50.202;10.948;2023-01-29T05:54:52;4.00;;;2.95;;
26540;SDS011;14206;50.202;10.948;2023-01-29T05:57:19;3.70;;;2.85;;
26540;SDS011;14206;50.202;10.948;2023-01-29T05:59:46;4.85;;;2.75;;
26540;SDS011;14206;50.202;10.948;2023-01-29T06:02:12;4.15;;;2.92;;
26540;SDS011;14206;50.202;10.948;2023-01-29T06:04:39;3.97;;;2.75;;
26540;SDS011;14206;50.202;10.948;2023-01-29T06:07:06;3.58;;;2.80;;
26540;SDS011;14206;50.202;10.948;2023-01-29T06:09:33;3.60;;;2.70;;
26540;SDS011;14206;50.202;10.948;2023-01-29T06:12:00;3.45;;;2.65;;
26540;SDS011;14206;50.202;10.948;2023-01-29T06:14:26;3.20;;;2.58;;
26540;SDS011;14206;50.202;10.948;2023-01-29T06:16:53;3.13;;;2.45;;
26540;SDS011;14206;50.202;10.948;2023-01-29T06:19:20;3.35;;;2.70;;
26540;SDS011;14206;50.202;10.948;2023-01-29T06:21:47;3.40;;;2.70;;
26540;SDS011;14206;50.202;10.948;2023-01-29T06:24:14;6.13;;;4.50;;
26540;SDS011;14206;50.202;10.948;2023-01-29T06:26:41;4.45;;;3.42;;
26540;SDS011;14206;50.202;10.948;2023-01-29T06:29:08;6.07;;;4.50;;
26540;SDS011;14206;50.202;10.948;2023-01-29T06:31:35;5.85;;;4.40;;
26540;SDS011;14206;50.202;10.948;2023-01-29T06:34:05;6.63;;;5.00;;
26540;SDS011;14206;50.202;10.948;2023-01-29T06:36:35;6.60;;;4.88;;
26540;SDS011;14206;50.202;10.948;2023-01-29T06:39:02;7.72;;;5.40;;
26540;SDS011;14206;50.202;10.948;2023-01-29T06:41:29;6.55;;;4.75;;
26540;SDS011;14206;50.202;10.948;2023-01-29T06:43:56;5.68;;;4.68;;
26540;SDS011;14206;50.202;10.948;2023-01-29T06:46:23;8.52;;;5.53;;
26540;SDS011;14206;50.202;10.948;2023-01-29T06:48:49;6.25;;;4.80;;
26540;SDS011;14206;50.202;10.948;2023-01-29T06:51:16;7.18;;;5.20;;
26540;SDS011;14206;50.202;10.948;2023-01-29T06:53:43;5.43;;;3.63;;
26540;SDS011;14206;50.202;10.948;2023-01-29T06:56:12;5.68;;;4.40;;
26540;SDS011;14206;50.202;10.948;2023-01-29T06:58:45;7.10;;;4.43;;
26540;SDS011;14206;50.202;10.948;2023-01-29T07:01:12;6.93;;;5.15;;
26540;SDS011;14206;50.202;10.948;2023-01-29T07:03:59;6.45;;;4.55;;
26540;SDS011;14206;50.202;10.948;2023-01-29T07:06:28;6.47;;;5.10;;
26540;SDS011;14206;50.202;10.948;2023-01-29T07:08:55;6.32;;;4.55;;
26540;SDS011;14206;50.202;10.948;2023-01-29T07:11:22;7.78;;;5.20;;
26540;SDS011;14206;50.202;10.948;2023-01-29T07:13:49;7.70;;;5.45;;
26540;SDS011;14206;50.202;10.948;2023-01-29T07:16:16;6.45;;;5.10;;
26540;SDS011;14206;50.202;10.948;2023-01-29T07:18:44;7.80;;;5.50;;
26540;SDS011;14206;50.202;10.948;2023-01-29T07:21:11;6.75;;;5.18;;
26540;SDS011;14206;50.202;10.948;2023-01-29T07:23:38;6.03;;;5.05;;
26540;SDS011;14206;50.202;10.948;2023-01-29T07:26:06;6.28;;;4.93;;
26540;SDS011;14206;50.202;10.948;2023-01-29T07:28:36;7.72;;;4.90;;
26540;SDS011;14206;50.202;10.948;2023-01-29T07:31:04;7.07;;;5.22;;
26540;SDS011;14206;50.202;10.948;2023-01-29T07:33:32;6.38;;;5.00;;
26540;SDS011;14206;50.202;10.948;2023-01-29T07:35:59;4.97;;;4.18;;
26540;SDS011;14206;50.202;10.948;2023-01-29T07:38:26;6.60;;;3.75;;
26540;SDS011;14206;50.202;10.948;2023-01-29T07:40:53;6.80;;;5.03;;
26540;SDS011;14206;50.202;10.948;2023-01-29T07:43:20;6.30;;;5.28;;
26540;SDS011;14206;50.202;10.948;2023-01-29T07:45:49;8.95;;;6.78;;
26540;SDS011;14206;50.202;10.948;2023-01-29T07:48:17;7.18;;;5.72;;
26540;SDS011;14206;50.202;10.948;2023-01-29T07:50:43;5.32;;;4.30;;
26540;SDS011;14206;50.202;10.948;2023-01-29T07:53:14;5.00;;;3.65;;
26540;SDS011;14206;50.202;10.948;2023-01-29T07:55:44;3.97;;;3.50;;
26540;SDS011;14206;50.202;10.948;2023-01-29T07:58:10;4.28;;;3.20;;
26540;SDS011;14206;50.202;10.948;2023-01-29T08:00:38;3.60;;;2.92;;
26540;SDS011;14206;50.202;10.948;2023-01-29T08:03:06;5.15;;;4.15;;
26540;SDS011;14206;50.202;10.948;2023-01-29T08:05:36;4.72;;;3.58;;
26540;SDS011;14206;50.202;10.948;2023-01-29T08:08:03;5.50;;;4.28;;
26540;SDS011;14206;50.202;10.948;2023-01-29T08:10:36;9.95;;;6.47;;
26540;SDS011;14206;50.202;10.948;2023-01-29T08:13:04;9.50;;;6.57;;
26540;SDS011;14206;50.202;10.948;2023-01-29T08:15:32;6.90;;;5.28;;
26540;SDS011;14206;50.202;10.948;2023-01-29T08:18:03;7.18;;;5.78;;
26540;SDS011;14206;50.202;10.948;2023-01-29T08:20:30;6.70;;;5.60;;
26540;SDS011;14206;50.202;10.948;2023-01-29T08:22:57;8.00;;;5.80;;
26540;SDS011;14206;50.202;10.948;2023-01-29T08:25:25;7.40;;;5.78;;
26540;SDS011;14206;50.202;10.948;2023-01-29T08:27:52;6.85;;;5.15;;
26540;SDS011;14206;50.202;10.948;2023-01-29T08:30:20;5.78;;;4.28;;
26540;SDS011;14206;50.202;10.948;2023-01-29T08:32:46;6.18;;;4.88;;
26540;SDS011;14206;50.202;10.948;2023-01-29T08:35:13;6.45;;;5.25;;
26540;SDS011;14206;50.202;10.948;2023-01-29T08:37:40;6.80;;;5.45;;
26540;SDS011;14206;50.202;10.948;2023-01-29T08:40:07;4.72;;;3.78;;
26540;SDS011;14206;50.202;10.948;2023-01-29T08:42:36;5.88;;;4.90;;
26540;SDS011;14206;50.202;10.948;2023-01-29T08:45:02;5.88;;;4.82;;
26540;SDS011;14206;50.202;10.948;2023-01-29T08:47:30;8.70;;;6.20;;
26540;SDS011;14206;50.202;10.948;2023-01-29T08:49:57;5.55;;;4.70;;
26540;SDS011;14206;50.202;10.948;2023-01-29T08:52:24;6.40;;;5.07;;
26540;SDS011;14206;50.202;10.948;2023-01-29T08:54:51;8.13;;;6.00;;
26540;SDS011;14206;50.202;10.948;2023-01-29T08:57:17;8.02;;;5.60;;
26540;SDS011;14206;50.202;10.948;2023-01-29T08:59:44;6.50;;;4.95;;
26540;SDS011;14206;50.202;10.948;2023-01-29T09:02:11;7.85;;;5.88;;
26540;SDS011;14206;50.202;10.948;2023-01-29T09:04:38;6.78;;;5.85;;
26540;SDS011;14206;50.202;10.948;2023-01-29T09:07:05;8.00;;;5.72;;
26540;SDS011;14206;50.202;10.948;2023-01-29T09:09:31;8.13;;;5.90;;
26540;SDS011;14206;50.202;10.948;2023-01-29T09:11:58;7.32;;;5.32;;
26540;SDS011;14206;50.202;10.948;2023-01-29T09:14:25;5.55;;;4.65;;
26540;SDS011;14206;50.202;10.948;2023-01-29T09:16:52;5.93;;;4.78;;
26540;SDS011;14206;50.202;10.948;2023-01-29T09:19:19;5.38;;;4.03;;
26540;SDS011;14206;50.202;10.948;2023-01-29T09:21:50;4.72;;;3.97;;
26540;SDS011;14206;50.202;10.948;2023-01-29T09:24:17;4.47;;;3.88;;
26540;SDS011;14206;50.202;10.948;2023-01-29T09:26:43;4.43;;;3.88;;
26540;SDS011;14206;50.202;10.948;2023-01-29T09:29:10;4.20;;;3.13;;
26540;SDS011;14206;50.202;10.948;2023-01-29T09:31:37;5.85;;;4.53;;
26540;SDS011;14206;50.202;10.948;2023-01-29T09:34:04;6.57;;;4.90;;
26540;SDS011;14206;50.202;10.948;2023-01-29T09:36:33;6.38;;;4.93;;
26540;SDS011;14206;50.202;10.948;2023-01-29T09:39:00;5.30;;;4.35;;
26540;SDS011;14206;50.202;10.948;2023-01-29T09:47:23;4.50;;;4.07;;
26540;SDS011;14206;50.202;10.948;2023-01-29T09:50:14;6.10;;;4.63;;
26540;SDS011;14206;50.202;10.948;2023-01-29T09:55:22;5.57;;;4.18;;
26540;SDS011;14206;50.202;10.948;2023-01-29T09:57:54;7.40;;;5.65;;
26540;SDS011;14206;50.202;10.948;2023-01-29T10:00:39;5.68;;;4.72;;
26540;SDS011;14206;50.202;10.948;2023-01-29T10:20:31;7.78;;;5.63;;
26540;SDS011;14206;50.202;10.948;2023-01-29T10:25:47;5.93;;;4.30;;
26540;SDS011;14206;50.202;10.948;2023-01-29T10:31:34;6.07;;;5.00;;
26540;SDS011;14206;50.202;10.948;2023-01-29T10:34:20;7.25;;;5.32;;
26540;SDS011;14206;50.202;10.948;2023-01-29T10:36:49;7.00;;;5.38;;
26540;SDS011;14206;50.202;10.948;2023-01-29T10:39:16;9.98;;;6.72;;
26540;SDS011;14206;50.202;10.948;2023-01-29T10:45:03;9.35;;;6.50;;
26540;SDS011;14206;50.202;10.948;2023-01-29T10:53:26;5.55;;;4.35;;
26540;SDS011;14206;50.202;10.948;2023-01-29T10:56:33;8.18;;;5.93;;
26540;SDS011;14206;50.202;10.948;2023-01-29T11:02:01;8.63;;;6.55;;
26540;SDS011;14206;50.202;10.948;2023-01-29T11:04:46;8.80;;;6.63;;
26540;SDS011;14206;50.202;10.948;2023-01-29T11:07:15;9.77;;;6.97;;
26540;SDS011;14206;50.202;10.948;2023-01-29T11:12:24;8.88;;;6.80;;
26540;SDS011;14206;50.202;10.948;2023-01-29T11:17:30;7.03;;;5.80;;
26540;SDS011;14206;50.202;10.948;2023-01-29T11:19:57;8.52;;;6.25;;
26540;SDS011;14206;50.202;10.948;2023-01-29T11:22:24;7.25;;;5.35;;
26540;SDS011;14206;50.202;10.948;2023-01-29T11:27:44;7.78;;;6.03;;
26540;SDS011;14206;50.202;10.948;2023-01-29T11:33:06;7.65;;;5.88;;
26540;SDS011;14206;50.202;10.948;2023-01-29T11:35:47;7.65;;;6.05;;
26540;SDS011;14206;50.202;10.948;2023-01-29T11:40:41;7.95;;;5.95;;
26540;SDS011;14206;50.202;10.948;2023-01-29T11:45:38;7.00;;;5.40;;
26540;SDS011;14206;50.202;10.948;2023-01-29T11:48:10;6.95;;;5.60;;
26540;SDS011;14206;50.202;10.948;2023-01-29T11:50:49;7.22;;;5.45;;
26540;SDS011;14206;50.202;10.948;2023-01-29T11:56:02;6.53;;;5.05;;
26540;SDS011;14206;50.202;10.948;2023-01-29T11:58:42;6.80;;;5.07;;
26540;SDS011;14206;50.202;10.948;2023-01-29T12:01:10;7.07;;;5.32;;
26540;SDS011;14206;50.202;10.948;2023-01-29T12:03:39;6.22;;;4.53;;
26540;SDS011;14206;50.202;10.948;2023-01-29T12:06:22;9.60;;;6.22;;
26540;SDS011;14206;50.202;10.948;2023-01-29T12:09:00;7.95;;;5.88;;
26540;SDS011;14206;50.202;10.948;2023-01-29T12:11:33;9.32;;;6.82;;
26540;SDS011;14206;50.202;10.948;2023-01-29T12:14:02;10.13;;;7.07;;
26540;SDS011;14206;50.202;10.948;2023-01-29T12:22:21;7.05;;;5.18;;
26540;SDS011;14206;50.202;10.948;2023-01-29T12:24:55;7.65;;;5.65;;
26540;SDS011;14206;50.202;10.948;2023-01-29T12:27:45;9.00;;;6.15;;
26540;SDS011;14206;50.202;10.948;2023-01-29T12:30:21;10.57;;;7.30;;
26540;SDS011;14206;50.202;10.948;2023-01-29T12:33:18;12.60;;;8.23;;
26540;SDS011;14206;50.202;10.948;2023-01-29T12:38:42;8.77;;;6.82;;
26540;SDS011;14206;50.202;10.948;2023-01-29T12:41:21;8.88;;;6.65;;
26540;SDS011;14206;50.202;10.948;2023-01-29T12:44:04;7.55;;;6.03;;
26540;SDS011;14206;50.202;10.948;2023-01-29T12:46:38;7.97;;;6.15;;
26540;SDS011;14206;50.202;10.948;2023-01-29T12:49:14;9.90;;;6.53;;
26540;SDS011;14206;50.202;10.948;2023-01-29T12:52:01;10.43;;;7.78;;
26540;SDS011;14206;50.202;10.948;2023-01-29T12:54:47;10.68;;;7.43;;
26540;SDS011;14206;50.202;10.948;2023-01-29T12:57:22;9.40;;;7.22;;
26540;SDS011;14206;50.202;10.948;2023-01-29T12:59:59;9.85;;;7.47;;
26540;SDS011;14206;50.202;10.948;2023-01-29T13:05:02;9.85;;;6.93;;
26540;SDS011;14206;50.202;10.948;2023-01-29T13:07:46;8.68;;;6.30;;
26540;SDS011;14206;50.202;10.948;2023-01-29T13:10:23;10.18;;;7.13;;
26540;SDS011;14206;50.202;10.948;2023-01-29T13:13:03;8.98;;;6.93;;
26540;SDS011;14206;50.202;10.948;2023-01-29T13:15:39;7.93;;;6.32;;
26540;SDS011;14206;50.202;10.948;2023-01-29T13:18:19;8.80;;;7.00;;
26540;SDS011;14206;50.202;10.948;2023-01-29T13:21:11;7.80;;;5.90;;
26540;SDS011;14206;50.202;10.948;2023-01-29T13:23:49;9.10;;;7.00;;
26540;SDS011;14206;50.202;10.948;2023-01-29T13:26:19;9.57;;;7.60;;
26540;SDS011;14206;50.202;10.948;2023-01-29T13:28:47;9.90;;;7.63;;
26540;SDS011;14206;50.202;10.948;2023-01-29T13:34:10;8.18;;;6.20;;
26540;SDS011;14206;50.202;10.948;2023-01-29T13:39:23;10.20;;;6.88;;
26540;SDS011;14206;50.202;10.948;2023-01-29T13:41:50;9.57;;;7.28;;
26540;SDS011;14206;50.202;10.948;2023-01-29T13:44:19;10.55;;;6.68;;
26540;SDS011;14206;50.202;10.948;2023-01-29T13:47:07;10.05;;;7.35;;
26540;SDS011;14206;50.202;10.948;2023-01-29T13:49:37;10.18;;;7.53;;
26540;SDS011;14206;50.202;10.948;2023-01-29T13:52:14;10.32;;;7.53;;
26540;SDS011;14206;50.202;10.948;2023-01-29T13:54:53;9.85;;;7.32;;
26540;SDS011;14206;50.202;10.948;2023-01-29T14:00:47;11.07;;;7.97;;
26540;SDS011;14206;50.202;10.948;2023-01-29T14:05:50;9.43;;;7.40;;
26540;SDS011;14206;50.202;10.948;2023-01-29T14:08:40;11.43;;;7.68;;
26540;SDS011;14206;50.202;10.948;2023-01-29T14:13:47;10.23;;;7.32;;
26540;SDS011;14206;50.202;10.948;2023-01-29T14:18:53;9.68;;;7.32;;
26540;SDS011;14206;50.202;10.948;2023-01-29T14:21:24;11.05;;;8.02;;
26540;SDS011;14206;50.202;10.948;2023-01-29T14:26:44;10.20;;;7.75;;
26540;SDS011;14206;50.202;10.948;2023-01-29T14:29:18;11.15;;;7.80;;
26540;SDS011;14206;50.202;10.948;2023-01-29T14:34:33;11.95;;;7.80;;
26540;SDS011;14206;50.202;10.948;2023-01-29T14:39:43;10.77;;;6.70;;
26540;SDS011;14206;50.202;10.948;2023-01-29T14:44:59;10.15;;;7.35;;
26540;SDS011;14206;50.202;10.948;2023-01-29T14:50:00;12.82;;;8.73;;
26540;SDS011;14206;50.202;10.948;2023-01-29T14:52:34;9.98;;;7.32;;
26540;SDS011;14206;50.202;10.948;2023-01-29T14:55:06;11.43;;;7.72;;
26540;SDS011;14206;50.202;10.948;2023-01-29T14:57:36;12.13;;;8.55;;
26540;SDS011;14206;50.202;10.948;2023-01-29T15:00:04;11.38;;;8.02;;
26540;SDS011;14206;50.202;10.948;2023-01-29T15:02:39;11.07;;;7.43;;
26540;SDS011;14206;50.202;10.948;2023-01-29T15:05:10;10.05;;;7.40;;
26540;SDS011;14206;50.202;10.948;2023-01-29T15:07:47;9.63;;;6.63;;
26540;SDS011;14206;50.202;10.948;2023-01-29T15:10:19;8.20;;;6.07;;
26540;SDS011;14206;50.202;10.948;2023-01-29T15:13:36;10.93;;;7.57;;
26540;SDS011;14206;50.202;10.948;2023-01-29T15:15:53;11.02;;;7.28;;
26540;SDS011;14206;50.202;10.948;2023-01-29T15:18:38;11.23;;;7.78;;
26540;SDS011;14206;50.202;10.948;2023-01-29T15:21:16;10.23;;;7.18;;
26540;SDS011;14206;50.202;10.948;2023-01-29T15:23:44;10.65;;;7.00;;
26540;SDS011;14206;50.202;10.948;2023-01-29T15:26:18;10.80;;;7.70;;
26540;SDS011;14206;50.202;10.948;2023-01-29T15:28:57;11.70;;;7.88;;
26540;SDS011;14206;50.202;10.948;2023-01-29T15:31:30;9.98;;;7.35;;
26540;SDS011;14206;50.202;10.948;2023-01-29T15:33:57;12.35;;;8.38;;
26540;SDS011;14206;50.202;10.948;2023-01-29T15:36:30;12.23;;;8.40;;
26540;SDS011;14206;50.202;10.948;2023-01-29T15:41:37;12.65;;;8.40;;
26540;SDS011;14206;50.202;10.948;2023-01-29T15:44:09;11.70;;;8.00;;
26540;SDS011;14206;50.202;10.948;2023-01-29T15:46:42;11.45;;;7.13;;
26540;SDS011;14206;50.202;10.948;2023-01-29T15:49:18;10.15;;;6.63;;
26540;SDS011;14206;50.202;10.948;2023-01-29T15:51:54;8.98;;;5.82;;
26540;SDS011;14206;50.202;10.948;2023-01-29T15:54:22;10.60;;;6.82;;
26540;SDS011;14206;50.202;10.948;2023-01-29T15:56:51;10.80;;;7.40;;
26540;SDS011;14206;50.202;10.948;2023-01-29T15:59:26;8.52;;;5.82;;
26540;SDS011;14206;50.202;10.948;2023-01-29T16:02:20;10.23;;;6.53;;
26540;SDS011;14206;50.202;10.948;2023-01-29T16:05:11;9.30;;;6.50;;
26540;SDS011;14206;50.202;10.948;2023-01-29T16:08:02;11.88;;;7.35;;
26540;SDS011;14206;50.202;10.948;2023-01-29T16:10:30;10.68;;;6.30;;
26540;SDS011;14206;50.202;10.948;2023-01-29T16:12:58;8.73;;;5.75;;
26540;SDS011;14206;50.202;10.948;2023-01-29T16:15:27;6.63;;;4.57;;
26540;SDS011;14206;50.202;10.948;2023-01-29T16:18:03;7.18;;;5.00;;
26540;SDS011;14206;50.202;10.948;2023-01-29T16:20:49;8.80;;;6.22;;
26540;SDS011;14206;50.202;10.948;2023-01-29T16:23:25;7.57;;;5.10;;
26540;SDS011;14206;50.202;10.948;2023-01-29T16:25:56;6.05;;;4.10;;
26540;SDS011;14206;50.202;10.948;2023-01-29T16:28:48;5.50;;;3.65;;
26540;SDS011;14206;50.202;10.948;2023-01-29T16:31:28;5.93;;;4.03;;
26540;SDS011;14206;50.202;10.948;2023-01-29T16:33:57;5.85;;;3.75;;
26540;SDS011;14206;50.202;10.948;2023-01-29T16:36:32;5.57;;;3.70;;
26540;SDS011;14206;50.202;10.948;2023-01-29T16:38:59;6.55;;;4.45;;
26540;SDS011;14206;50.202;10.948;2023-01-29T16:41:34;6.78;;;5.13;;
26540;SDS011;14206;50.202;10.948;2023-01-29T16:44:24;8.70;;;5.43;;
26540;SDS011;14206;50.202;10.948;2023-01-29T16:47:04;6.28;;;4.65;;
26540;SDS011;14206;50.202;10.948;2023-01-29T16:49:52;5.72;;;3.92;;
26540;SDS011;14206;50.202;10.948;2023-01-29T16:52:31;4.95;;;3.58;;
26540;SDS011;14206;50.202;10.948;2023-01-29T16:55:20;5.78;;;3.65;;
26540;SDS011;14206;50.202;10.948;2023-01-29T16:57:49;5.90;;;3.58;;
26540;SDS011;14206;50.202;10.948;2023-01-29T17:00:24;4.60;;;3.17;;
26540;SDS011;14206;50.202;10.948;2023-01-29T17:02:54;5.15;;;3.38;;
26540;SDS011;14206;50.202;10.948;2023-01-29T17:05:30;5.80;;;3.47;;
26540;SDS011;14206;50.202;10.948;2023-01-29T17:08:00;4.57;;;2.92;;
26540;SDS011;14206;50.202;10.948;2023-01-29T17:10:29;5.13;;;3.15;;
26540;SDS011;14206;50.202;10.948;2023-01-29T17:13:03;5.25;;;3.00;;
26540;SDS011;14206;50.202;10.948;2023-01-29T17:18:16;4.10;;;2.97;;
26540;SDS011;14206;50.202;10.948;2023-01-29T17:20:45;4.75;;;3.00;;
26540;SDS011;14206;50.202;10.948;2023-01-29T17:23:12;4.10;;;2.85;;
26540;SDS011;14206;50.202;10.948;2023-01-29T17:25:39;4.50;;;3.25;;
26540;SDS011;14206;50.202;10.948;2023-01-29T17:28:06;4.68;;;2.90;;
26540;SDS011;14206;50.202;10.948;2023-01-29T17:30:35;4.78;;;2.80;;
26540;SDS011;14206;50.202;10.948;2023-01-29T17:33:13;4.90;;;3.00;;
26540;SDS011;14206;50.202;10.948;2023-01-29T17:35:42;4.13;;;2.70;;
26540;SDS011;14206;50.202;10.948;2023-01-29T17:38:11;6.63;;;3.22;;
26540;SDS011;14206;50.202;10.948;2023-01-29T17:40:57;5.03;;;3.15;;
26540;SDS011;14206;50.202;10.948;2023-01-29T17:43:28;5.45;;;3.45;;
26540;SDS011;14206;50.202;10.948;2023-01-29T17:45:55;5.97;;;3.47;;
26540;SDS011;14206;50.202;10.948;2023-01-29T17:48:23;5.20;;;3.05;;